sensor_id;sensor_type;location;lat;lon;timestamp;P1;durP1;ratioP1;P2;durP2;ratioP2
15246;SDS011;7726;48.820;9.248;2023-05-07T00:01:43;5.90;;;3.83;;
15246;SDS011;7726;48.820;9.248;2023-05-07T00:04:10;3.72;;;3.42;;
15246;SDS011;7726;48.820;9.248;2023-05-07T00:06:38;5.72;;;3.78;;
15246;SDS011;7726;48.820;9.248;2023-05-07T00:09:05;3.83;;;3.42;;
15246;SDS011;7726;48.820;9.248;2023-05-07T00:11:33;5.93;;;3.65;;
15246;SDS011;7726;48.820;9.248;2023-05-07T00:14:00;4.65;;;3.33;;
15246;SDS011;7726;48.820;9.248;2023-05-07T00:16:28;5.40;;;3.38;;
15246;SDS011;7726;48.820;9.248;2023-05-07T00:18:55;3.80;;;3.30;;
15246;SDS011;7726;48.820;9.248;2023-05-07T00:21:23;4.60;;;3.78;;
15246;SDS011;7726;48.820;9.248;2023-05-07T00:23:51;3.78;;;3.35;;
15246;SDS011;7726;48.820;9.248;2023-05-07T00:26:18;6.75;;;3.75;;
15246;SDS011;7726;48.820;9.248;2023-05-07T00:28:46;3.50;;;3.20;;
15246;SDS011;7726;48.820;9.248;2023-05-07T00:31:13;5.03;;;3.50;;
15246;SDS011;7726;48.820;9.248;2023-05-07T00:33:42;4.85;;;3.60;;
15246;SDS011;7726;48.820;9.248;2023-05-07T00:36:09;4.68;;;3.53;;
15246;SDS011;7726;48.820;9.248;2023-05-07T00:38:36;3.83;;;3.13;;
15246;SDS011;7726;48.820;9.248;2023-05-07T00:41:03;6.05;;;3.80;;
15246;SDS011;7726;48.820;9.248;2023-05-07T00:43:30;4.50;;;3.40;;
15246;SDS011;7726;48.820;9.248;2023-05-07T00:45:58;6.38;;;3.55;;
15246;SDS011;7726;48.820;9.248;2023-05-07T00:48:25;4.10;;;3.28;;
15246;SDS011;7726;48.820;9.248;2023-05-07T00:50:54;3.65;;;3.35;;
15246;SDS011;7726;48.820;9.248;2023-05-07T00:53:21;3.50;;;3.20;;
15246;SDS011;7726;48.820;9.248;2023-05-07T00:55:48;4.50;;;3.42;;
15246;SDS011;7726;48.820;9.248;2023-05-07T00:58:16;6.45;;;3.78;;
15246;SDS011;7726;48.820;9.248;2023-05-07T01:00:43;4.07;;;3.75;;
15246;SDS011;7726;48.820;9.248;2023-05-07T01:03:10;4.03;;;3.72;;
15246;SDS011;7726;48.820;9.248;2023-05-07T01:05:38;4.63;;;3.63;;
15246;SDS011;7726;48.820;9.248;2023-05-07T01:08:06;5.05;;;3.20;;
15246;SDS011;7726;48.820;9.248;2023-05-07T01:10:33;4.38;;;3.42;;
15246;SDS011;7726;48.820;9.248;2023-05-07T01:13:01;3.40;;;3.20;;
15246;SDS011;7726;48.820;9.248;2023-05-07T01:15:28;3.50;;;3.20;;
15246;SDS011;7726;48.820;9.248;2023-05-07T01:17:55;5.55;;;3.50;;
15246;SDS011;7726;48.820;9.248;2023-05-07T01:20:22;3.58;;;3.28;;
15246;SDS011;7726;48.820;9.248;2023-05-07T01:22:51;4.32;;;3.60;;
15246;SDS011;7726;48.820;9.248;2023-05-07T01:25:19;3.45;;;3.15;;
15246;SDS011;7726;48.820;9.248;2023-05-07T01:27:46;4.85;;;3.58;;
15246;SDS011;7726;48.820;9.248;2023-05-07T01:30:13;5.57;;;3.42;;
15246;SDS011;7726;48.820;9.248;2023-05-07T01:32:41;3.30;;;3.00;;
15246;SDS011;7726;48.820;9.248;2023-05-07T01:35:09;3.65;;;3.20;;
15246;SDS011;7726;48.820;9.248;2023-05-07T01:37:37;4.53;;;3.42;;
15246;SDS011;7726;48.820;9.248;2023-05-07T01:40:06;4.63;;;3.63;;
15246;SDS011;7726;48.820;9.248;2023-05-07T01:42:34;4.03;;;3.10;;
15246;SDS011;7726;48.820;9.248;2023-05-07T01:45:02;3.72;;;3.17;;
15246;SDS011;7726;48.820;9.248;2023-05-07T01:47:29;3.85;;;3.50;;
15246;SDS011;7726;48.820;9.248;2023-05-07T01:49:56;3.40;;;3.10;;
15246;SDS011;7726;48.820;9.248;2023-05-07T01:52:24;5.22;;;3.25;;
15246;SDS011;7726;48.820;9.248;2023-05-07T01:54:51;5.68;;;3.85;;
15246;SDS011;7726;48.820;9.248;2023-05-07T01:57:19;3.78;;;3.35;;
15246;SDS011;7726;48.820;9.248;2023-05-07T01:59:47;5.55;;;3.53;;
15246;SDS011;7726;48.820;9.248;2023-05-07T02:02:14;4.15;;;3.38;;
15246;SDS011;7726;48.820;9.248;2023-05-07T02:04:41;4.25;;;3.40;;
15246;SDS011;7726;48.820;9.248;2023-05-07T02:07:08;4.40;;;3.42;;
15246;SDS011;7726;48.820;9.248;2023-05-07T02:09:35;3.40;;;3.10;;
15246;SDS011;7726;48.820;9.248;2023-05-07T02:12:02;5.45;;;3.67;;
15246;SDS011;7726;48.820;9.248;2023-05-07T02:14:31;3.88;;;2.80;;
15246;SDS011;7726;48.820;9.248;2023-05-07T02:16:58;8.52;;;3.30;;
15246;SDS011;7726;48.820;9.248;2023-05-07T02:19:25;3.20;;;2.80;;
15246;SDS011;7726;48.820;9.248;2023-05-07T02:21:53;4.22;;;3.00;;
15246;SDS011;7726;48.820;9.248;2023-05-07T02:24:20;3.35;;;3.15;;
15246;SDS011;7726;48.820;9.248;2023-05-07T02:26:47;3.00;;;2.80;;
15246;SDS011;7726;48.820;9.248;2023-05-07T02:29:14;4.18;;;3.33;;
15246;SDS011;7726;48.820;9.248;2023-05-07T02:31:43;4.85;;;3.15;;
15246;SDS011;7726;48.820;9.248;2023-05-07T02:34:10;3.70;;;3.40;;
15246;SDS011;7726;48.820;9.248;2023-05-07T02:36:37;5.95;;;3.00;;
15246;SDS011;7726;48.820;9.248;2023-05-07T02:39:05;3.95;;;3.35;;
15246;SDS011;7726;48.820;9.248;2023-05-07T02:41:32;5.50;;;3.42;;
15246;SDS011;7726;48.820;9.248;2023-05-07T02:43:59;3.83;;;3.05;;
15246;SDS011;7726;48.820;9.248;2023-05-07T02:46:26;4.20;;;3.80;;
15246;SDS011;7726;48.820;9.248;2023-05-07T02:48:55;3.75;;;3.40;;
15246;SDS011;7726;48.820;9.248;2023-05-07T02:51:22;3.65;;;3.00;;
15246;SDS011;7726;48.820;9.248;2023-05-07T02:53:50;3.80;;;3.10;;
15246;SDS011;7726;48.820;9.248;2023-05-07T02:56:18;3.38;;;3.08;;
15246;SDS011;7726;48.820;9.248;2023-05-07T02:58:46;3.58;;;3.25;;
15246;SDS011;7726;48.820;9.248;2023-05-07T03:01:13;3.50;;;3.05;;
15246;SDS011;7726;48.820;9.248;2023-05-07T03:03:40;5.18;;;3.30;;
15246;SDS011;7726;48.820;9.248;2023-05-07T03:06:09;7.40;;;3.47;;
15246;SDS011;7726;48.820;9.248;2023-05-07T03:08:36;5.57;;;3.10;;
15246;SDS011;7726;48.820;9.248;2023-05-07T03:11:03;3.40;;;3.10;;
15246;SDS011;7726;48.820;9.248;2023-05-07T03:13:30;5.15;;;3.35;;
15246;SDS011;7726;48.820;9.248;2023-05-07T03:15:57;4.97;;;3.60;;
15246;SDS011;7726;48.820;9.248;2023-05-07T03:18:25;7.68;;;3.70;;
15246;SDS011;7726;48.820;9.248;2023-05-07T03:20:52;4.57;;;3.33;;
15246;SDS011;7726;48.820;9.248;2023-05-07T03:23:20;4.00;;;3.60;;
15246;SDS011;7726;48.820;9.248;2023-05-07T03:25:47;3.28;;;2.97;;
15246;SDS011;7726;48.820;9.248;2023-05-07T03:28:15;3.28;;;3.00;;
15246;SDS011;7726;48.820;9.248;2023-05-07T03:30:42;4.17;;;3.60;;
15246;SDS011;7726;48.820;9.248;2023-05-07T03:33:09;3.90;;;3.50;;
15246;SDS011;7726;48.820;9.248;2023-05-07T03:35:36;3.92;;;3.22;;
15246;SDS011;7726;48.820;9.248;2023-05-07T03:38:03;3.58;;;3.10;;
15246;SDS011;7726;48.820;9.248;2023-05-07T03:40:32;4.03;;;3.63;;
15246;SDS011;7726;48.820;9.248;2023-05-07T03:42:59;4.67;;;3.50;;
15246;SDS011;7726;48.820;9.248;2023-05-07T03:45:26;4.00;;;3.40;;
15246;SDS011;7726;48.820;9.248;2023-05-07T03:47:53;3.22;;;2.95;;
15246;SDS011;7726;48.820;9.248;2023-05-07T03:50:21;3.73;;;3.23;;
15246;SDS011;7726;48.820;9.248;2023-05-07T03:52:48;3.90;;;3.55;;
15246;SDS011;7726;48.820;9.248;2023-05-07T03:55:15;6.13;;;3.70;;
15246;SDS011;7726;48.820;9.248;2023-05-07T03:57:44;5.17;;;3.50;;
15246;SDS011;7726;48.820;9.248;2023-05-07T04:00:11;4.93;;;3.33;;
15246;SDS011;7726;48.820;9.248;2023-05-07T04:02:39;4.87;;;3.70;;
15246;SDS011;7726;48.820;9.248;2023-05-07T04:05:06;5.13;;;3.23;;
15246;SDS011;7726;48.820;9.248;2023-05-07T04:07:33;3.78;;;3.00;;
15246;SDS011;7726;48.820;9.248;2023-05-07T04:10:01;5.90;;;3.03;;
15246;SDS011;7726;48.820;9.248;2023-05-07T04:12:28;9.70;;;3.72;;
15246;SDS011;7726;48.820;9.248;2023-05-07T04:14:56;5.13;;;3.45;;
15246;SDS011;7726;48.820;9.248;2023-05-07T04:17:23;3.13;;;2.83;;
15246;SDS011;7726;48.820;9.248;2023-05-07T04:19:50;4.50;;;3.58;;
15246;SDS011;7726;48.820;9.248;2023-05-07T04:22:17;6.07;;;3.58;;
15246;SDS011;7726;48.820;9.248;2023-05-07T04:24:45;5.60;;;3.13;;
15246;SDS011;7726;48.820;9.248;2023-05-07T04:27:12;5.97;;;3.17;;
15246;SDS011;7726;48.820;9.248;2023-05-07T04:29:39;4.10;;;3.35;;
15246;SDS011;7726;48.820;9.248;2023-05-07T04:32:09;4.00;;;2.87;;
15246;SDS011;7726;48.820;9.248;2023-05-07T04:34:36;3.05;;;2.80;;
15246;SDS011;7726;48.820;9.248;2023-05-07T04:37:03;4.55;;;3.42;;
15246;SDS011;7726;48.820;9.248;2023-05-07T04:39:30;5.95;;;3.40;;
15246;SDS011;7726;48.820;9.248;2023-05-07T04:42:00;4.20;;;3.78;;
15246;SDS011;7726;48.820;9.248;2023-05-07T04:44:27;4.80;;;3.60;;
15246;SDS011;7726;48.820;9.248;2023-05-07T04:46:56;5.07;;;3.88;;
15246;SDS011;7726;48.820;9.248;2023-05-07T04:49:24;5.63;;;4.45;;
15246;SDS011;7726;48.820;9.248;2023-05-07T04:51:51;4.20;;;3.80;;
15246;SDS011;7726;48.820;9.248;2023-05-07T04:54:18;4.43;;;4.03;;
15246;SDS011;7726;48.820;9.248;2023-05-07T04:56:46;5.28;;;4.22;;
15246;SDS011;7726;48.820;9.248;2023-05-07T04:59:13;5.55;;;4.72;;
15246;SDS011;7726;48.820;9.248;2023-05-07T05:01:40;6.25;;;4.78;;
15246;SDS011;7726;48.820;9.248;2023-05-07T05:04:07;4.45;;;4.05;;
15246;SDS011;7726;48.820;9.248;2023-05-07T05:06:36;4.93;;;4.00;;
15246;SDS011;7726;48.820;9.248;2023-05-07T05:09:03;5.40;;;4.45;;
15246;SDS011;7726;48.820;9.248;2023-05-07T05:11:30;8.82;;;4.60;;
15246;SDS011;7726;48.820;9.248;2023-05-07T05:13:58;5.90;;;4.65;;
15246;SDS011;7726;48.820;9.248;2023-05-07T05:16:27;7.22;;;4.22;;
15246;SDS011;7726;48.820;9.248;2023-05-07T05:18:54;5.45;;;3.83;;
15246;SDS011;7726;48.820;9.248;2023-05-07T05:21:21;5.38;;;4.05;;
15246;SDS011;7726;48.820;9.248;2023-05-07T05:23:49;6.13;;;3.95;;
15246;SDS011;7726;48.820;9.248;2023-05-07T05:26:16;4.70;;;4.07;;
15246;SDS011;7726;48.820;9.248;2023-05-07T05:28:46;4.28;;;3.88;;
15246;SDS011;7726;48.820;9.248;2023-05-07T05:31:13;4.32;;;3.55;;
15246;SDS011;7726;48.820;9.248;2023-05-07T05:33:40;6.30;;;3.60;;
15246;SDS011;7726;48.820;9.248;2023-05-07T05:36:09;3.67;;;3.38;;
15246;SDS011;7726;48.820;9.248;2023-05-07T05:38:37;4.00;;;3.60;;
15246;SDS011;7726;48.820;9.248;2023-05-07T05:41:05;12.38;;;3.88;;
15246;SDS011;7726;48.820;9.248;2023-05-07T05:43:32;5.53;;;3.65;;
15246;SDS011;7726;48.820;9.248;2023-05-07T05:45:59;5.53;;;4.70;;
15246;SDS011;7726;48.820;9.248;2023-05-07T05:48:28;5.60;;;4.28;;
15246;SDS011;7726;48.820;9.248;2023-05-07T05:50:55;6.55;;;3.85;;
15246;SDS011;7726;48.820;9.248;2023-05-07T05:53:23;5.38;;;4.05;;
15246;SDS011;7726;48.820;9.248;2023-05-07T05:55:50;4.57;;;3.85;;
15246;SDS011;7726;48.820;9.248;2023-05-07T05:58:19;4.00;;;3.58;;
15246;SDS011;7726;48.820;9.248;2023-05-07T06:00:46;4.70;;;3.97;;
15246;SDS011;7726;48.820;9.248;2023-05-07T06:03:16;4.40;;;4.00;;
15246;SDS011;7726;48.820;9.248;2023-05-07T06:05:43;5.68;;;3.42;;
15246;SDS011;7726;48.820;9.248;2023-05-07T06:08:10;5.13;;;3.65;;
15246;SDS011;7726;48.820;9.248;2023-05-07T06:10:37;5.03;;;4.10;;
15246;SDS011;7726;48.820;9.248;2023-05-07T06:13:05;3.72;;;3.42;;
15246;SDS011;7726;48.820;9.248;2023-05-07T06:15:33;3.65;;;3.35;;
15246;SDS011;7726;48.820;9.248;2023-05-07T06:18:00;5.18;;;3.33;;
15246;SDS011;7726;48.820;9.248;2023-05-07T06:20:27;4.15;;;3.75;;
15246;SDS011;7726;48.820;9.248;2023-05-07T06:22:54;3.90;;;3.50;;
15246;SDS011;7726;48.820;9.248;2023-05-07T06:25:22;5.57;;;3.78;;
15246;SDS011;7726;48.820;9.248;2023-05-07T06:27:49;3.50;;;3.20;;
15246;SDS011;7726;48.820;9.248;2023-05-07T06:30:16;4.45;;;3.70;;
15246;SDS011;7726;48.820;9.248;2023-05-07T06:32:44;3.92;;;3.60;;
15246;SDS011;7726;48.820;9.248;2023-05-07T06:35:11;5.30;;;3.65;;
15246;SDS011;7726;48.820;9.248;2023-05-07T06:37:39;3.83;;;3.50;;
15246;SDS011;7726;48.820;9.248;2023-05-07T06:40:07;3.97;;;3.50;;
15246;SDS011;7726;48.820;9.248;2023-05-07T06:42:35;5.25;;;3.67;;
15246;SDS011;7726;48.820;9.248;2023-05-07T06:45:02;7.95;;;3.40;;
15246;SDS011;7726;48.820;9.248;2023-05-07T06:47:30;3.88;;;3.40;;
15246;SDS011;7726;48.820;9.248;2023-05-07T06:49:58;6.07;;;3.70;;
15246;SDS011;7726;48.820;9.248;2023-05-07T06:52:25;4.25;;;3.58;;
15246;SDS011;7726;48.820;9.248;2023-05-07T06:54:52;7.38;;;3.67;;
15246;SDS011;7726;48.820;9.248;2023-05-07T06:57:19;4.55;;;3.35;;
15246;SDS011;7726;48.820;9.248;2023-05-07T06:59:47;4.57;;;2.97;;
15246;SDS011;7726;48.820;9.248;2023-05-07T07:02:14;5.07;;;3.20;;
15246;SDS011;7726;48.820;9.248;2023-05-07T07:04:41;3.42;;;3.13;;
15246;SDS011;7726;48.820;9.248;2023-05-07T07:07:11;3.58;;;3.28;;
15246;SDS011;7726;48.820;9.248;2023-05-07T07:09:38;4.43;;;2.90;;
15246;SDS011;7726;48.820;9.248;2023-05-07T07:12:05;5.03;;;2.97;;
15246;SDS011;7726;48.820;9.248;2023-05-07T07:14:32;4.40;;;3.00;;
15246;SDS011;7726;48.820;9.248;2023-05-07T07:16:59;4.95;;;3.15;;
15246;SDS011;7726;48.820;9.248;2023-05-07T07:19:27;4.70;;;3.35;;
15246;SDS011;7726;48.820;9.248;2023-05-07T07:21:54;3.03;;;2.83;;
15246;SDS011;7726;48.820;9.248;2023-05-07T07:24:22;3.08;;;2.88;;
15246;SDS011;7726;48.820;9.248;2023-05-07T07:26:49;3.25;;;3.05;;
15246;SDS011;7726;48.820;9.248;2023-05-07T07:29:16;3.13;;;2.83;;
15246;SDS011;7726;48.820;9.248;2023-05-07T07:31:44;4.05;;;3.00;;
15246;SDS011;7726;48.820;9.248;2023-05-07T07:34:11;2.60;;;2.40;;
15246;SDS011;7726;48.820;9.248;2023-05-07T07:36:38;2.92;;;2.10;;
15246;SDS011;7726;48.820;9.248;2023-05-07T07:39:05;2.38;;;2.17;;
15246;SDS011;7726;48.820;9.248;2023-05-07T07:41:34;2.05;;;1.92;;
15246;SDS011;7726;48.820;9.248;2023-05-07T07:44:02;3.25;;;2.20;;
15246;SDS011;7726;48.820;9.248;2023-05-07T07:46:32;2.40;;;1.85;;
15246;SDS011;7726;48.820;9.248;2023-05-07T07:48:59;2.78;;;2.15;;
15246;SDS011;7726;48.820;9.248;2023-05-07T07:51:26;2.67;;;2.13;;
15246;SDS011;7726;48.820;9.248;2023-05-07T07:53:53;2.97;;;2.35;;
15246;SDS011;7726;48.820;9.248;2023-05-07T07:56:22;2.47;;;2.28;;
15246;SDS011;7726;48.820;9.248;2023-05-07T07:58:51;2.90;;;2.70;;
15246;SDS011;7726;48.820;9.248;2023-05-07T08:01:18;4.40;;;4.00;;
15246;SDS011;7726;48.820;9.248;2023-05-07T08:03:45;6.97;;;4.40;;
15246;SDS011;7726;48.820;9.248;2023-05-07T08:06:12;3.83;;;3.53;;
15246;SDS011;7726;48.820;9.248;2023-05-07T08:08:39;3.63;;;3.40;;
15246;SDS011;7726;48.820;9.248;2023-05-07T08:11:06;3.83;;;3.55;;
15246;SDS011;7726;48.820;9.248;2023-05-07T08:13:34;3.58;;;3.00;;
15246;SDS011;7726;48.820;9.248;2023-05-07T08:16:02;2.80;;;2.55;;
15246;SDS011;7726;48.820;9.248;2023-05-07T08:18:30;3.08;;;2.55;;
15246;SDS011;7726;48.820;9.248;2023-05-07T08:20:57;7.25;;;3.10;;
15246;SDS011;7726;48.820;9.248;2023-05-07T08:23:24;2.67;;;2.47;;
15246;SDS011;7726;48.820;9.248;2023-05-07T08:25:51;4.55;;;3.03;;
15246;SDS011;7726;48.820;9.248;2023-05-07T08:28:18;2.90;;;2.70;;
15246;SDS011;7726;48.820;9.248;2023-05-07T08:30:46;3.70;;;2.72;;
15246;SDS011;7726;48.820;9.248;2023-05-07T08:33:14;2.83;;;2.60;;
15246;SDS011;7726;48.820;9.248;2023-05-07T08:35:42;3.35;;;3.00;;
15246;SDS011;7726;48.820;9.248;2023-05-07T08:38:09;3.78;;;2.80;;
15246;SDS011;7726;48.820;9.248;2023-05-07T08:40:36;3.38;;;2.75;;
15246;SDS011;7726;48.820;9.248;2023-05-07T08:43:05;2.58;;;2.40;;
15246;SDS011;7726;48.820;9.248;2023-05-07T08:45:33;3.20;;;2.90;;
15246;SDS011;7726;48.820;9.248;2023-05-07T08:48:01;5.30;;;3.10;;
15246;SDS011;7726;48.820;9.248;2023-05-07T08:50:30;3.40;;;3.10;;
15246;SDS011;7726;48.820;9.248;2023-05-07T08:52:57;3.30;;;3.00;;
15246;SDS011;7726;48.820;9.248;2023-05-07T08:55:25;3.95;;;3.17;;
15246;SDS011;7726;48.820;9.248;2023-05-07T08:57:52;4.00;;;2.80;;
15246;SDS011;7726;48.820;9.248;2023-05-07T09:00:19;2.90;;;2.70;;
15246;SDS011;7726;48.820;9.248;2023-05-07T09:02:46;2.83;;;2.50;;
15246;SDS011;7726;48.820;9.248;2023-05-07T09:05:14;3.50;;;2.55;;
15246;SDS011;7726;48.820;9.248;2023-05-07T09:07:42;4.20;;;3.20;;
15246;SDS011;7726;48.820;9.248;2023-05-07T09:10:11;4.13;;;3.10;;
15246;SDS011;7726;48.820;9.248;2023-05-07T09:12:38;4.82;;;3.00;;
15246;SDS011;7726;48.820;9.248;2023-05-07T09:15:06;4.53;;;2.70;;
15246;SDS011;7726;48.820;9.248;2023-05-07T09:17:33;3.03;;;2.83;;
15246;SDS011;7726;48.820;9.248;2023-05-07T09:20:04;3.17;;;2.88;;
15246;SDS011;7726;48.820;9.248;2023-05-07T09:22:31;2.80;;;2.60;;
15246;SDS011;7726;48.820;9.248;2023-05-07T09:25:00;2.70;;;2.50;;
15246;SDS011;7726;48.820;9.248;2023-05-07T09:27:27;2.38;;;2.25;;
15246;SDS011;7726;48.820;9.248;2023-05-07T09:29:54;3.95;;;2.78;;
15246;SDS011;7726;48.820;9.248;2023-05-07T09:32:21;2.65;;;2.45;;
15246;SDS011;7726;48.820;9.248;2023-05-07T09:34:49;2.30;;;2.10;;
15246;SDS011;7726;48.820;9.248;2023-05-07T09:37:17;1.90;;;1.80;;
15246;SDS011;7726;48.820;9.248;2023-05-07T09:39:45;1.95;;;1.75;;
15246;SDS011;7726;48.820;9.248;2023-05-07T09:42:13;3.42;;;1.70;;
15246;SDS011;7726;48.820;9.248;2023-05-07T09:44:41;2.65;;;1.70;;
15246;SDS011;7726;48.820;9.248;2023-05-07T09:47:08;2.45;;;1.67;;
15246;SDS011;7726;48.820;9.248;2023-05-07T09:49:36;2.33;;;1.63;;
15246;SDS011;7726;48.820;9.248;2023-05-07T09:52:04;1.85;;;1.75;;
15246;SDS011;7726;48.820;9.248;2023-05-07T09:54:33;1.83;;;1.73;;
15246;SDS011;7726;48.820;9.248;2023-05-07T09:57:02;2.97;;;1.85;;
15246;SDS011;7726;48.820;9.248;2023-05-07T09:59:32;2.10;;;1.80;;
15246;SDS011;7726;48.820;9.248;2023-05-07T10:02:00;1.63;;;1.40;;
15246;SDS011;7726;48.820;9.248;2023-05-07T10:04:28;2.92;;;1.80;;
15246;SDS011;7726;48.820;9.248;2023-05-07T10:06:55;2.10;;;1.90;;
15246;SDS011;7726;48.820;9.248;2023-05-07T10:09:23;2.45;;;1.98;;
15246;SDS011;7726;48.820;9.248;2023-05-07T10:11:50;2.30;;;1.90;;
15246;SDS011;7726;48.820;9.248;2023-05-07T10:14:19;4.00;;;1.70;;
15246;SDS011;7726;48.820;9.248;2023-05-07T10:16:47;1.98;;;1.70;;
15246;SDS011;7726;48.820;9.248;2023-05-07T10:19:15;1.92;;;1.67;;
15246;SDS011;7726;48.820;9.248;2023-05-07T10:21:44;3.00;;;1.85;;
15246;SDS011;7726;48.820;9.248;2023-05-07T10:24:12;1.60;;;1.50;;
15246;SDS011;7726;48.820;9.248;2023-05-07T10:26:41;2.17;;;1.98;;
15246;SDS011;7726;48.820;9.248;2023-05-07T10:29:11;2.40;;;1.60;;
15246;SDS011;7726;48.820;9.248;2023-05-07T10:31:44;1.80;;;1.70;;
15246;SDS011;7726;48.820;9.248;2023-05-07T10:34:18;3.45;;;1.88;;
15246;SDS011;7726;48.820;9.248;2023-05-07T10:36:48;2.47;;;1.80;;
15246;SDS011;7726;48.820;9.248;2023-05-07T10:39:15;2.45;;;1.80;;
15246;SDS011;7726;48.820;9.248;2023-05-07T10:41:42;2.40;;;1.77;;
15246;SDS011;7726;48.820;9.248;2023-05-07T10:44:10;3.67;;;2.05;;
15246;SDS011;7726;48.820;9.248;2023-05-07T10:46:37;2.80;;;1.90;;
15246;SDS011;7726;48.820;9.248;2023-05-07T10:49:10;1.80;;;1.70;;
15246;SDS011;7726;48.820;9.248;2023-05-07T10:51:38;3.65;;;1.70;;
15246;SDS011;7726;48.820;9.248;2023-05-07T10:54:18;2.65;;;2.10;;
15246;SDS011;7726;48.820;9.248;2023-05-07T10:56:45;3.63;;;2.17;;
15246;SDS011;7726;48.820;9.248;2023-05-07T10:59:31;2.45;;;1.90;;
15246;SDS011;7726;48.820;9.248;2023-05-07T11:01:59;2.25;;;2.05;;
15246;SDS011;7726;48.820;9.248;2023-05-07T11:04:27;2.35;;;1.90;;
15246;SDS011;7726;48.820;9.248;2023-05-07T11:09:56;3.55;;;1.80;;
15246;SDS011;7726;48.820;9.248;2023-05-07T11:15:14;1.77;;;1.67;;
15246;SDS011;7726;48.820;9.248;2023-05-07T11:17:52;2.80;;;1.80;;
15246;SDS011;7726;48.820;9.248;2023-05-07T11:20:19;2.17;;;1.67;;
15246;SDS011;7726;48.820;9.248;2023-05-07T11:22:46;1.90;;;1.80;;
15246;SDS011;7726;48.820;9.248;2023-05-07T11:25:18;1.58;;;1.48;;
15246;SDS011;7726;48.820;9.248;2023-05-07T11:27:45;4.30;;;1.83;;
15246;SDS011;7726;48.820;9.248;2023-05-07T11:30:16;3.63;;;1.67;;
15246;SDS011;7726;48.820;9.248;2023-05-07T11:32:46;2.50;;;2.00;;
15246;SDS011;7726;48.820;9.248;2023-05-07T11:35:13;2.08;;;1.98;;
15246;SDS011;7726;48.820;9.248;2023-05-07T11:37:42;4.53;;;1.70;;
15246;SDS011;7726;48.820;9.248;2023-05-07T11:40:11;1.95;;;1.52;;
15246;SDS011;7726;48.820;9.248;2023-05-07T11:42:40;2.00;;;1.67;;
15246;SDS011;7726;48.820;9.248;2023-05-07T11:45:08;1.83;;;1.60;;
15246;SDS011;7726;48.820;9.248;2023-05-07T11:47:35;3.08;;;2.13;;
15246;SDS011;7726;48.820;9.248;2023-05-07T11:50:03;2.35;;;1.65;;
15246;SDS011;7726;48.820;9.248;2023-05-07T11:52:31;3.90;;;1.60;;
15246;SDS011;7726;48.820;9.248;2023-05-07T11:54:59;1.50;;;1.40;;
15246;SDS011;7726;48.820;9.248;2023-05-07T11:57:26;1.83;;;1.50;;
15246;SDS011;7726;48.820;9.248;2023-05-07T11:59:55;2.80;;;1.70;;
15246;SDS011;7726;48.820;9.248;2023-05-07T12:02:22;1.80;;;1.58;;
15246;SDS011;7726;48.820;9.248;2023-05-07T12:04:50;1.60;;;1.45;;
15246;SDS011;7726;48.820;9.248;2023-05-07T12:07:17;3.78;;;1.88;;
15246;SDS011;7726;48.820;9.248;2023-05-07T12:09:44;1.90;;;1.52;;
15246;SDS011;7726;48.820;9.248;2023-05-07T12:12:12;1.60;;;1.45;;
15246;SDS011;7726;48.820;9.248;2023-05-07T12:14:40;1.73;;;1.63;;
15246;SDS011;7726;48.820;9.248;2023-05-07T12:17:09;1.67;;;1.58;;
15246;SDS011;7726;48.820;9.248;2023-05-07T12:19:37;2.55;;;1.60;;
15246;SDS011;7726;48.820;9.248;2023-05-07T12:22:05;1.67;;;1.50;;
15246;SDS011;7726;48.820;9.248;2023-05-07T12:24:42;2.63;;;1.50;;
15246;SDS011;7726;48.820;9.248;2023-05-07T12:27:09;5.70;;;1.65;;
15246;SDS011;7726;48.820;9.248;2023-05-07T12:29:36;1.67;;;1.58;;
15246;SDS011;7726;48.820;9.248;2023-05-07T12:32:05;3.67;;;1.85;;
15246;SDS011;7726;48.820;9.248;2023-05-07T12:34:34;3.50;;;1.80;;
15246;SDS011;7726;48.820;9.248;2023-05-07T12:37:01;1.60;;;1.50;;
15246;SDS011;7726;48.820;9.248;2023-05-07T12:39:31;2.20;;;1.50;;
15246;SDS011;7726;48.820;9.248;2023-05-07T12:41:59;3.92;;;1.90;;
15246;SDS011;7726;48.820;9.248;2023-05-07T12:44:29;3.83;;;3.42;;
15246;SDS011;7726;48.820;9.248;2023-05-07T12:46:56;5.70;;;3.83;;
15246;SDS011;7726;48.820;9.248;2023-05-07T12:49:25;4.95;;;3.28;;
15246;SDS011;7726;48.820;9.248;2023-05-07T12:51:54;6.28;;;3.13;;
15246;SDS011;7726;48.820;9.248;2023-05-07T12:54:28;3.78;;;2.55;;
15246;SDS011;7726;48.820;9.248;2023-05-07T12:56:59;5.53;;;2.75;;
15246;SDS011;7726;48.820;9.248;2023-05-07T12:59:30;2.88;;;2.67;;
15246;SDS011;7726;48.820;9.248;2023-05-07T13:01:57;4.07;;;2.90;;
15246;SDS011;7726;48.820;9.248;2023-05-07T13:04:25;4.00;;;3.30;;
15246;SDS011;7726;48.820;9.248;2023-05-07T13:06:52;3.20;;;2.90;;
15246;SDS011;7726;48.820;9.248;2023-05-07T13:09:20;4.60;;;3.17;;
15246;SDS011;7726;48.820;9.248;2023-05-07T13:11:48;2.88;;;2.50;;
15246;SDS011;7726;48.820;9.248;2023-05-07T13:14:15;5.90;;;3.05;;
15246;SDS011;7726;48.820;9.248;2023-05-07T13:16:42;4.97;;;2.97;;
15246;SDS011;7726;48.820;9.248;2023-05-07T13:19:09;4.88;;;2.95;;
15246;SDS011;7726;48.820;9.248;2023-05-07T13:21:36;3.97;;;2.35;;
15246;SDS011;7726;48.820;9.248;2023-05-07T13:24:03;4.35;;;1.95;;
15246;SDS011;7726;48.820;9.248;2023-05-07T13:26:32;4.40;;;1.95;;
15246;SDS011;7726;48.820;9.248;2023-05-07T13:28:59;2.28;;;2.03;;
15246;SDS011;7726;48.820;9.248;2023-05-07T13:31:26;4.60;;;2.55;;
15246;SDS011;7726;48.820;9.248;2023-05-07T13:33:53;5.47;;;2.83;;
15246;SDS011;7726;48.820;9.248;2023-05-07T13:36:21;3.80;;;2.20;;
15246;SDS011;7726;48.820;9.248;2023-05-07T13:38:49;7.95;;;1.90;;
15246;SDS011;7726;48.820;9.248;2023-05-07T13:41:17;2.35;;;1.60;;
15246;SDS011;7726;48.820;9.248;2023-05-07T13:43:46;2.53;;;1.20;;
15246;SDS011;7726;48.820;9.248;2023-05-07T13:46:13;4.90;;;1.50;;
15246;SDS011;7726;48.820;9.248;2023-05-07T13:48:41;4.70;;;1.35;;
15246;SDS011;7726;48.820;9.248;2023-05-07T13:51:08;3.53;;;1.50;;
15246;SDS011;7726;48.820;9.248;2023-05-07T13:53:35;4.22;;;1.80;;
15246;SDS011;7726;48.820;9.248;2023-05-07T13:56:03;3.65;;;1.38;;
15246;SDS011;7726;48.820;9.248;2023-05-07T13:58:30;2.67;;;1.30;;
15246;SDS011;7726;48.820;9.248;2023-05-07T14:00:58;2.47;;;1.60;;
15246;SDS011;7726;48.820;9.248;2023-05-07T14:03:26;2.97;;;1.30;;
15246;SDS011;7726;48.820;9.248;2023-05-07T14:05:53;2.20;;;1.10;;
15246;SDS011;7726;48.820;9.248;2023-05-07T14:08:20;2.85;;;1.30;;
15246;SDS011;7726;48.820;9.248;2023-05-07T14:10:48;2.53;;;1.70;;
15246;SDS011;7726;48.820;9.248;2023-05-07T14:13:15;4.13;;;1.65;;
15246;SDS011;7726;48.820;9.248;2023-05-07T14:15:42;1.77;;;1.67;;
15246;SDS011;7726;48.820;9.248;2023-05-07T14:18:12;2.65;;;1.70;;
15246;SDS011;7726;48.820;9.248;2023-05-07T14:20:40;1.70;;;1.58;;
15246;SDS011;7726;48.820;9.248;2023-05-07T14:23:08;1.65;;;1.55;;
15246;SDS011;7726;48.820;9.248;2023-05-07T14:25:35;4.43;;;1.90;;
15246;SDS011;7726;48.820;9.248;2023-05-07T14:28:02;2.35;;;2.15;;
15246;SDS011;7726;48.820;9.248;2023-05-07T14:30:29;2.80;;;2.10;;
15246;SDS011;7726;48.820;9.248;2023-05-07T14:32:56;2.35;;;1.98;;
15246;SDS011;7726;48.820;9.248;2023-05-07T14:35:25;4.55;;;2.10;;
15246;SDS011;7726;48.820;9.248;2023-05-07T14:37:52;3.42;;;2.22;;
15246;SDS011;7726;48.820;9.248;2023-05-07T14:40:19;3.17;;;2.17;;
15246;SDS011;7726;48.820;9.248;2023-05-07T14:42:46;5.15;;;2.50;;
15246;SDS011;7726;48.820;9.248;2023-05-07T14:45:14;2.58;;;2.10;;
15246;SDS011;7726;48.820;9.248;2023-05-07T14:47:41;3.30;;;2.30;;
15246;SDS011;7726;48.820;9.248;2023-05-07T14:50:08;3.97;;;2.47;;
15246;SDS011;7726;48.820;9.248;2023-05-07T14:52:37;5.95;;;2.70;;
15246;SDS011;7726;48.820;9.248;2023-05-07T14:55:04;3.70;;;2.50;;
15246;SDS011;7726;48.820;9.248;2023-05-07T14:57:31;4.53;;;2.90;;
15246;SDS011;7726;48.820;9.248;2023-05-07T15:00:00;2.80;;;2.40;;
15246;SDS011;7726;48.820;9.248;2023-05-07T15:02:27;1.92;;;1.83;;
15246;SDS011;7726;48.820;9.248;2023-05-07T15:04:54;2.42;;;1.98;;
15246;SDS011;7726;48.820;9.248;2023-05-07T15:07:21;5.35;;;2.25;;
15246;SDS011;7726;48.820;9.248;2023-05-07T15:09:50;2.10;;;1.88;;